Time;durP1;ratioP1;P1;durP2;ratioP2;P2;SDS_P1;SDS_P2;PMS_P1;PMS_P2;Temp;Humidity;BMP_temperature;BMP_pressure;BME280_temperature;BME280_humidity;BME280_pressure;Samples;Min_cycle;Max_cycle;Signal;HPM_P1;HPM_P2
2022/10/17 00:01:07;;;;;;;;;6.00;6.00;;;;;19.54;100.00;101156.38;5015676;28;59586;-72
2022/10/17 00:03:33;;;;;;;;;6.00;6.00;;;;;19.53;100.00;101165.34;5014649;28;67598;-72
2022/10/17 00:06:04;;;;;;;;;7.33;7.33;;;;;19.54;100.00;101160.88;5003318;28;45178;-72
2022/10/17 00:08:29;;;;;;;;;6.00;6.00;;;;;19.54;100.00;101158.19;5016440;28;45372;-72
2022/10/17 00:10:57;;;;;;;;;6.67;6.67;;;;;19.54;100.00;101166.22;5015446;28;62572;-72
2022/10/17 00:13:23;;;;;;;;;7.00;7.00;;;;;19.54;100.00;101167.09;5015889;28;46548;-72
2022/10/17 00:15:48;;;;;;;;;7.67;7.67;;;;;19.55;100.00;101168.88;5016203;28;45193;-72
2022/10/17 00:18:14;;;;;;;;;8.00;6.67;;;;;19.54;100.00;101166.22;5015583;28;46642;-72
2022/10/17 00:20:39;;;;;;;;;7.33;7.33;;;;;19.54;100.00;101160.88;5015582;28;60227;-72
2022/10/17 00:23:04;;;;;;;;;6.33;6.33;;;;;19.53;100.00;101167.13;5014525;28;66934;-72
2022/10/17 00:25:29;;;;;;;;;7.67;7.67;;;;;19.53;100.00;101165.34;5015218;28;65218;-72
2022/10/17 00:27:55;;;;;;;;;11.33;7.67;;;;;19.52;100.00;101176.09;5017359;28;63065;-72
2022/10/17 00:30:20;;;;;;;;;7.67;7.67;;;;;19.50;100.00;101181.50;5015103;28;63783;-72
2022/10/17 00:32:45;;;;;;;;;9.67;7.33;;;;;19.52;100.00;101186.81;5014787;28;71212;-72
2022/10/17 00:35:11;;;;;;;;;7.33;7.33;;;;;19.53;100.00;101188.56;5015921;28;45458;-71
2022/10/17 00:37:37;;;;;;;;;9.33;7.67;;;;;19.53;100.00;101172.50;5015197;28;59279;-71
2022/10/17 00:40:04;;;;;;;;;6.33;6.33;;;;;19.54;100.00;101180.50;5016326;28;45375;-72
2022/10/17 00:42:30;;;;;;;;;11.00;7.00;;;;;19.53;100.00;101177.84;5015374;28;46633;-72
2022/10/17 00:45:21;;;;;;;;;7.00;7.00;;;;;19.56;100.00;101177.81;5018593;28;58782;-72
2022/10/17 00:48:00;;;;;;;;;6.33;5.00;;;;;19.56;100.00;101178.69;5009154;28;45396;-72
2022/10/17 00:50:26;;;;;;;;;5.67;5.67;;;;;19.56;100.00;101173.31;5019462;28;45542;-72
2022/10/17 00:52:51;;;;;;;;;6.00;6.00;;;;;19.57;100.00;101174.22;5006832;28;45639;-72
2022/10/17 00:55:21;;;;;;;;;7.00;7.00;;;;;19.59;100.00;101172.41;5018711;28;45142;-72
2022/10/17 00:57:47;;;;;;;;;8.00;6.33;;;;;19.58;100.00;101167.94;5018925;28;45345;-72
2022/10/17 01:00:13;;;;;;;;;6.00;6.00;;;;;19.58;100.00;101170.59;5017044;28;63586;-72
2022/10/17 01:02:39;;;;;;;;;8.67;7.33;;;;;19.59;100.00;101167.91;5018623;28;46698;-71
2022/10/17 01:05:05;;;;;;;;;8.00;6.00;;;;;19.59;100.00;101167.91;5018689;28;45396;-72
2022/10/17 01:07:31;;;;;;;;;7.00;6.33;;;;;19.59;100.00;101177.75;5017532;28;45298;-72
2022/10/17 01:09:56;;;;;;;;;7.00;7.00;;;;;19.60;100.00;101188.47;5018363;28;58872;-72
2022/10/17 01:12:28;;;;;;;;;8.67;7.00;;;;;19.59;100.00;101173.28;5004310;28;70747;-72
2022/10/17 01:15:21;;;;;;;;;8.00;7.00;;;;;19.60;100.00;101172.41;5018630;28;45269;-72
2022/10/17 01:18:05;;;;;;;;;10.00;7.00;;;;;19.58;100.00;101162.56;5018556;28;45558;-72
2022/10/17 01:20:36;;;;;;;;;7.67;6.67;;;;;19.56;100.00;101177.81;5018822;28;45414;-72
2022/10/17 01:23:07;;;;;;;;;5.67;5.67;;;;;19.55;100.00;101176.06;5018358;28;45349;-71
2022/10/17 01:26:11;;;;;;;;;6.67;6.67;;;;;19.54;100.00;101174.25;5018298;28;45368;-72
2022/10/17 01:29:11;;;;;;;;;9.00;8.00;;;;;19.53;100.00;101192.13;5002235;28;45482;-71
2022/10/17 01:32:00;;;;;;;;;8.67;6.00;;;;;19.52;100.00;101187.69;5010082;28;45471;-71
2022/10/17 01:34:31;;;;;;;;;9.33;6.00;;;;;19.53;100.00;101188.56;5000474;28;47483;-72
2022/10/17 01:37:26;;;;;;;;;10.67;7.00;;;;;19.54;100.00;101195.69;5017184;28;46902;-71
2022/10/17 01:40:04;;;;;;;;;8.33;6.67;;;;;19.54;100.00;101201.03;5006734;28;45479;-71
2022/10/17 01:42:35;;;;;;;;;7.00;7.00;;;;;19.55;100.00;101200.16;5017072;28;45321;-72
2022/10/17 01:45:20;;;;;;;;;6.00;6.00;;;;;19.54;100.00;101212.63;5018162;28;46421;-72
2022/10/17 01:47:46;;;;;;;;;8.00;6.00;;;;;19.54;100.00;101211.75;5000451;28;45353;-71
2022/10/17 01:50:19;;;;;;;;;7.33;7.33;;;;;19.53;100.00;101204.63;5000548;28;45408;-72
2022/10/17 01:52:52;;;;;;;;;8.00;6.33;;;;;19.51;100.00;101203.81;5017251;28;45427;-72
2022/10/17 01:55:23;;;;;;;;;6.33;6.33;;;;;19.47;100.00;101204.75;5016671;28;46322;-72
2022/10/17 01:58:00;;;;;;;;;8.00;6.67;;;;;19.47;100.00;101216.38;5016958;28;45259;-72
2022/10/17 02:00:26;;;;;;;;;7.00;7.00;;;;;19.45;100.00;101211.97;5018844;28;45519;-72
2022/10/17 02:02:56;;;;;;;;;5.67;5.67;;;;;19.44;100.00;101223.56;5001929;28;45634;-72
2022/10/17 02:05:24;;;;;;;;;5.00;5.00;;;;;19.42;100.00;101212.88;5003865;28;46681;-72
2022/10/17 02:07:49;;;;;;;;;6.67;6.67;;;;;19.40;100.00;101204.00;5007024;28;45568;-72
2022/10/17 02:10:43;;;;;;;;;8.67;8.67;;;;;19.39;100.00;101210.28;5017313;28;64086;-72
2022/10/17 02:13:17;;;;;;;;;6.00;6.00;;;;;19.39;100.00;101204.94;5002889;28;45298;-72
2022/10/17 02:16:01;;;;;;;;;7.67;6.00;;;;;19.41;100.00;101211.13;5017583;28;47495;-72
2022/10/17 02:18:43;;;;;;;;;7.00;7.00;;;;;19.40;100.00;101216.53;5000193;28;45400;-72
2022/10/17 02:21:43;;;;;;;;;9.33;7.00;;;;;19.42;100.00;101206.66;5017824;28;45474;-72
2022/10/17 02:24:19;;;;;;;;;8.67;8.67;;;;;19.40;100.00;101203.13;5017893;28;45490;-72
2022/10/17 02:26:52;;;;;;;;;7.67;6.00;;;;;19.39;100.00;101199.56;5016336;28;46547;-72
2022/10/17 02:29:26;;;;;;;;;6.00;6.00;;;;;19.41;100.00;101200.41;5017673;28;45338;-72
2022/10/17 02:32:07;;;;;;;;;6.67;4.67;;;;;19.41;100.00;101188.81;4999162;28;45341;-71
2022/10/17 02:34:37;;;;;;;;;5.33;5.33;;;;;19.40;100.00;101189.75;5017433;28;45549;-72
2022/10/17 02:37:05;;;;;;;;;5.33;5.00;;;;;19.41;100.00;101188.81;5016031;28;47256;-72
2022/10/17 02:39:30;;;;;;;;;7.00;7.00;;;;;19.40;100.00;101187.06;4980113;28;45539;-72
2022/10/17 02:41:59;;;;;;;;;9.00;7.67;;;;;19.38;100.00;101185.28;4999081;28;53724;-71
2022/10/17 02:44:25;;;;;;;;;6.33;5.00;;;;;19.36;100.00;101188.91;5017715;28;45316;-71
2022/10/17 02:46:55;;;;;;;;;6.33;6.33;;;;;19.38;100.00;101197.78;5016618;28;67718;-71
2022/10/17 02:49:23;;;;;;;;;5.67;5.00;;;;;19.41;100.00;101203.09;4997687;28;45182;-72
2022/10/17 02:51:54;;;;;;;;;10.33;7.33;;;;;19.42;100.00;101201.28;5017489;28;45314;-72
2022/10/17 02:54:30;;;;;;;;;7.00;5.33;;;;;19.44;100.00;101202.13;5011085;28;45481;-72
2022/10/17 02:57:01;;;;;;;;;6.00;6.00;;;;;19.44;100.00;101211.09;5017159;28;47757;-72
2022/10/17 02:59:29;;;;;;;;;6.00;6.00;;;;;19.45;100.00;101212.84;5009249;28;45235;-72
2022/10/17 03:01:54;;;;;;;;;6.00;6.00;;;;;19.44;100.00;101205.72;5020468;28;65462;-72
2022/10/17 03:04:19;;;;;;;;;8.00;6.67;;;;;19.45;100.00;101201.25;5017178;28;45451;-72
2022/10/17 03:06:46;;;;;;;;;8.00;6.67;;;;;19.46;100.00;101197.66;5015620;28;46382;-72
2022/10/17 03:09:12;;;;;;;;;7.00;6.00;;;;;19.47;100.00;101200.28;5016881;28;45600;-72
2022/10/17 03:11:37;;;;;;;;;5.00;5.00;;;;;19.47;100.00;101199.41;5017152;28;45439;-72
2022/10/17 03:14:02;;;;;;;;;6.00;6.00;;;;;19.50;100.00;101215.44;5016391;28;61195;-71
2022/10/17 03:16:28;;;;;;;;;10.67;7.33;;;;;19.48;100.00;101212.75;5016369;28;46450;-71
2022/10/17 03:18:53;;;;;;;;;5.00;5.00;;;;;19.49;100.00;101208.28;5016441;28;65777;-72
2022/10/17 03:21:19;;;;;;;;;5.00;5.00;;;;;19.48;100.00;101195.81;5016779;28;45471;-72
2022/10/17 03:23:44;;;;;;;;;5.00;5.00;;;;;19.49;100.00;101205.59;5016714;28;52182;-71
2022/10/17 03:26:09;;;;;;;;;7.00;7.00;;;;;19.47;100.00;101208.31;5015351;28;68266;-72
2022/10/17 03:28:35;;;;;;;;;6.67;6.67;;;;;19.48;100.00;101215.44;5016127;28;63850;-72
2022/10/17 03:31:06;;;;;;;;;6.00;6.00;;;;;19.47;100.00;101220.84;5015814;28;60577;-71
2022/10/17 03:33:31;;;;;;;;;6.67;5.67;;;;;19.46;100.00;101225.31;5016440;28;45520;-71
2022/10/17 03:35:57;;;;;;;;;6.33;4.67;;;;;19.46;100.00;101230.66;5015850;28;68959;-72
2022/10/17 03:38:22;;;;;;;;;6.33;5.33;;;;;19.46;100.00;101232.47;5016373;28;62601;-72
2022/10/17 03:40:54;;;;;;;;;7.33;5.67;;;;;19.47;100.00;101247.63;5015831;28;58568;-72
2022/10/17 03:43:20;;;;;;;;;5.00;5.00;;;;;19.49;100.00;101248.47;5016706;28;45626;-72
2022/10/17 03:45:45;;;;;;;;;4.67;4.00;;;;;19.49;100.00;101252.03;5015495;28;69679;-72
2022/10/17 03:48:10;;;;;;;;;6.67;5.00;;;;;19.52;100.00;101256.44;5015769;28;63830;-72
2022/10/17 03:50:36;;;;;;;;;7.00;5.67;;;;;19.53;100.00;101252.84;5015949;28;59373;-72
2022/10/17 03:53:01;;;;;;;;;5.67;5.67;;;;;19.53;100.00;101259.09;5015813;28;61160;-72
2022/10/17 03:55:26;;;;;;;;;5.00;5.00;;;;;19.54;100.00;101262.66;5015170;28;69761;-72
2022/10/17 03:57:52;;;;;;;;;5.00;5.00;;;;;19.52;100.00;101257.34;5015823;28;67060;-72
2022/10/17 04:00:17;;;;;;;;;6.33;5.00;;;;;19.55;100.00;101256.41;5015904;28;59616;-71
2022/10/17 04:02:43;;;;;;;;;6.67;6.67;;;;;19.55;100.00;101261.75;5016057;28;45867;-71
2022/10/17 04:05:09;;;;;;;;;6.33;6.00;;;;;19.55;100.00;101262.66;5016169;28;47382;-71
2022/10/17 04:07:36;;;;;;;;;6.00;5.00;;;;;19.55;100.00;101278.72;5015546;28;45300;-72
2022/10/17 04:10:01;;;;;;;;;5.67;5.67;;;;;19.55;100.00;101270.69;5016406;28;45328;-72
2022/10/17 04:12:26;;;;;;;;;6.00;6.00;;;;;19.55;100.00;101267.13;5015960;28;45397;-71
2022/10/17 04:14:52;;;;;;;;;6.33;5.67;;;;;19.55;100.00;101270.69;5015214;28;66458;-72
2022/10/17 04:17:17;;;;;;;;;7.00;6.00;;;;;19.55;100.00;101269.81;5015276;28;68952;-72
2022/10/17 04:19:42;;;;;;;;;5.33;5.00;;;;;19.54;100.00;101274.25;5019402;28;45187;-72
2022/10/17 04:22:08;;;;;;;;;5.00;4.00;;;;;19.55;100.00;101277.84;5019306;28;60708;-72
2022/10/17 04:24:33;;;;;;;;;7.00;4.00;;;;;19.53;100.00;101285.00;5017955;28;67016;-72
2022/10/17 04:26:59;;;;;;;;;7.00;4.00;;;;;19.53;100.00;101287.69;5019911;28;45289;-72
2022/10/17 04:29:24;;;;;;;;;7.00;6.67;;;;;19.54;100.00;101286.75;5019297;28;45413;-72
2022/10/17 04:31:51;;;;;;;;;6.00;5.00;;;;;19.54;100.00;101286.75;5009596;28;45507;-72
2022/10/17 04:34:16;;;;;;;;;10.00;6.00;;;;;19.53;100.00;101276.97;5019072;28;46652;-72
2022/10/17 04:36:41;;;;;;;;;5.67;5.00;;;;;19.54;100.00;101289.44;5019555;28;45647;-72
2022/10/17 04:39:07;;;;;;;;;5.00;4.00;;;;;19.54;100.00;101292.13;5019487;28;45384;-72
2022/10/17 04:41:32;;;;;;;;;5.00;5.00;;;;;19.55;100.00;101301.94;5019182;28;45415;-72
2022/10/17 04:43:58;;;;;;;;;5.00;5.00;;;;;19.53;100.00;101301.94;5002107;28;46268;-72
2022/10/17 04:46:24;;;;;;;;;3.33;3.00;;;;;19.55;100.00;101299.25;5019305;28;45265;-72
2022/10/17 04:48:49;;;;;;;;;5.67;5.67;;;;;19.59;100.00;101303.66;5019029;28;45323;-72
2022/10/17 04:51:18;;;;;;;;;4.00;4.00;;;;;19.58;100.00;101297.38;5018663;28;56827;-72
2022/10/17 04:53:43;;;;;;;;;6.67;6.00;;;;;19.60;100.00;101306.34;5018499;28;60493;-72
2022/10/17 04:56:12;;;;;;;;;6.00;5.00;;;;;19.61;100.00;101312.56;5019149;28;45307;-72
2022/10/17 04:58:38;;;;;;;;;10.33;7.00;;;;;19.60;100.00;101318.81;5019099;28;45411;-72
2022/10/17 05:01:05;;;;;;;;;6.00;4.67;;;;;19.61;100.00;101323.28;5019016;28;45238;-72
2022/10/17 05:03:30;;;;;;;;;6.00;5.67;;;;;19.60;100.00;101322.41;5018525;28;46531;-72
2022/10/17 05:05:55;;;;;;;;;5.67;5.67;;;;;19.60;100.00;101330.44;5018707;28;45262;-71
2022/10/17 05:08:21;;;;;;;;;6.00;6.00;;;;;19.61;100.00;101331.31;5018034;28;65608;-72
2022/10/17 05:10:46;;;;;;;;;6.33;4.00;;;;;19.60;100.00;101338.47;5019019;28;45404;-72
2022/10/17 05:13:12;;;;;;;;;6.00;6.00;;;;;19.61;100.00;101352.75;5018737;28;46186;-72
2022/10/17 05:15:38;;;;;;;;;6.67;4.67;;;;;19.60;100.00;101345.59;5019046;28;45436;-72
2022/10/17 05:18:04;;;;;;;;;6.00;6.00;;;;;19.59;100.00;101350.09;5017958;28;45280;-72
2022/10/17 05:20:30;;;;;;;;;9.33;7.00;;;;;19.58;100.00;101348.28;5019339;28;45315;-72
2022/10/17 05:22:58;;;;;;;;;9.33;6.67;;;;;19.57;100.00;101340.28;5018015;28;60054;-72
2022/10/17 05:25:23;;;;;;;;;7.67;6.00;;;;;19.58;100.00;101342.94;5153812;22;46309;-72
2022/10/17 05:27:49;;;;;;;;;7.33;6.00;;;;;19.58;100.00;101350.09;5057835;28;45185;-72
2022/10/17 05:30:14;;;;;;;;;9.67;7.00;;;;;19.55;100.00;101351.03;5058320;28;45309;-71
2022/10/17 05:32:39;;;;;;;;;8.33;6.67;;;;;19.54;100.00;101348.38;5057004;28;46471;-72
2022/10/17 05:35:05;;;;;;;;;8.00;5.00;;;;;19.54;100.00;101356.41;5058092;28;45280;-72
2022/10/17 05:37:31;;;;;;;;;5.00;5.00;;;;;19.50;100.00;101360.06;5053751;28;45445;-71
2022/10/17 05:39:56;;;;;;;;;7.33;6.67;;;;;19.49;100.00;101342.22;5057164;28;61908;-72
2022/10/17 05:42:22;;;;;;;;;4.67;4.67;;;;;19.47;100.00;101350.28;5062818;28;47688;-71
2022/10/17 05:44:47;;;;;;;;;6.00;6.00;;;;;19.45;100.00;101343.19;5058513;28;45408;-72
2022/10/17 05:47:13;;;;;;;;;5.67;5.67;;;;;19.44;100.00;101361.06;5056955;28;45960;-72
2022/10/17 05:49:38;;;;;;;;;6.67;5.00;;;;;19.45;100.00;101361.94;5056965;28;56737;-71
2022/10/17 05:52:04;;;;;;;;;6.00;6.00;;;;;19.44;100.00;101366.41;5055860;28;66870;-72
2022/10/17 05:54:29;;;;;;;;;7.00;6.00;;;;;19.42;100.00;101362.88;5057304;28;45501;-71
2022/10/17 05:56:55;;;;;;;;;10.67;7.33;;;;;19.41;100.00;101354.88;5058285;28;45384;-72
2022/10/17 05:59:20;;;;;;;;;6.33;6.33;;;;;19.40;100.00;101342.38;5052053;28;45781;-72
2022/10/17 06:01:46;;;;;;;;;6.00;6.00;;;;;19.37;100.00;101344.19;5056348;28;66367;-71
2022/10/17 06:04:11;;;;;;;;;9.33;6.67;;;;;19.37;100.00;101346.00;5055617;28;45499;-72
2022/10/17 06:06:37;;;;;;;;;8.00;5.00;;;;;19.35;100.00;101334.44;5052545;28;54798;-72
2022/10/17 06:09:03;;;;;;;;;7.67;7.67;;;;;19.34;100.00;101335.34;5057696;28;45486;-72
2022/10/17 06:11:28;;;;;;;;;7.67;7.67;;;;;19.32;100.00;101321.97;5057588;28;46297;-71
2022/10/17 06:13:53;;;;;;;;;8.00;6.67;;;;;19.31;100.00;101330.91;5056908;28;60796;-71
2022/10/17 06:16:20;;;;;;;;;7.33;6.33;;;;;19.29;100.00;101332.75;5057681;28;46161;-71
2022/10/17 06:18:46;;;;;;;;;9.00;9.00;;;;;19.29;100.00;101346.13;5051432;28;45492;-71
2022/10/17 06:21:14;;;;;;;;;8.00;8.00;;;;;19.27;100.00;101357.75;5053788;28;47415;-71
2022/10/17 06:23:39;;;;;;;;;7.33;7.00;;;;;19.26;100.00;101351.53;5057081;28;45482;-77
2022/10/17 06:26:05;;;;;;;;;12.00;6.67;;;;;19.25;100.00;101363.16;5056106;28;45727;-76
2022/10/17 06:28:32;;;;;;;;;9.67;9.33;;;;;19.20;100.00;101372.16;5057161;28;45566;-76
2022/10/17 06:30:57;;;;;;;;;7.67;6.33;;;;;19.18;100.00;101372.19;5035717;28;45719;-76
2022/10/17 06:33:22;;;;;;;;;8.00;8.00;;;;;19.18;100.00;101374.00;5054487;28;63859;-75
2022/10/17 06:35:52;;;;;;;;;5.00;5.00;;;;;19.19;100.00;101391.81;5038819;28;52329;-75
2022/10/17 06:38:18;;;;;;;;;9.33;6.67;;;;;19.18;100.00;101380.22;5046691;28;45505;-75
2022/10/17 06:40:43;;;;;;;;;11.00;7.67;;;;;19.19;100.00;101390.03;5047109;28;45526;-75
2022/10/17 06:43:08;;;;;;;;;7.00;7.00;;;;;19.20;100.00;101394.47;5053067;28;64368;-75
2022/10/17 06:45:34;;;;;;;;;9.33;7.00;;;;;19.20;100.00;101398.94;5056226;28;54648;-76
2022/10/17 06:48:01;;;;;;;;;6.67;6.67;;;;;19.23;100.00;101396.19;5055890;28;45564;-75
2022/10/17 06:50:26;;;;;;;;;7.33;7.33;;;;;19.24;100.00;101416.72;5055878;28;46789;-78
2022/10/17 06:52:51;;;;;;;;;9.00;7.33;;;;;19.22;100.00;101416.72;5055841;28;56374;-75
2022/10/17 06:55:17;;;;;;;;;7.00;7.00;;;;;19.23;100.00;101415.84;5056049;28;57096;-76
2022/10/17 06:57:42;;;;;;;;;8.33;6.33;;;;;19.24;100.00;101433.69;5054935;28;58073;-75
2022/10/17 07:00:08;;;;;;;;;7.67;6.33;;;;;19.25;100.00;101431.88;5056549;28;46236;-75
2022/10/17 07:02:33;;;;;;;;;11.00;8.00;;;;;19.25;100.00;101432.75;5056630;28;45789;-76
2022/10/17 07:04:58;;;;;;;;;7.33;7.33;;;;;19.28;100.00;101442.53;5057036;28;45381;-75
2022/10/17 07:07:24;;;;;;;;;10.67;9.67;;;;;19.27;100.00;101463.06;5050263;28;54493;-74
2022/10/17 07:09:50;;;;;;;;;10.00;8.00;;;;;19.28;100.00;101478.25;5043969;28;58087;-76
2022/10/17 07:12:16;;;;;;;;;6.67;6.67;;;;;19.32;100.00;101463.00;5043741;28;45526;-74
2022/10/17 07:14:41;;;;;;;;;7.00;5.33;;;;;19.30;100.00;101470.19;5046075;28;53553;-75
2022/10/17 07:17:06;;;;;;;;;8.33;7.00;;;;;19.32;100.00;101496.03;5050358;28;59089;-74
2022/10/17 07:19:32;;;;;;;;;12.00;8.67;;;;;19.34;100.00;101498.69;5043424;28;47411;-75
2022/10/17 07:21:57;;;;;;;;;10.00;7.33;;;;;19.37;100.00;101499.50;5047338;28;45358;-75
2022/10/17 07:24:22;;;;;;;;;6.00;6.00;;;;;19.38;100.00;101512.00;5046306;28;62913;-75
2022/10/17 07:26:48;;;;;;;;;6.33;6.33;;;;;19.40;100.00;101512.00;5045186;28;59315;-75
2022/10/17 07:29:13;;;;;;;;;10.33;9.00;;;;;19.46;100.00;101522.63;5044393;28;45543;-74
2022/10/17 07:31:38;;;;;;;;;7.33;6.67;;;;;19.50;100.00;101515.44;5043335;28;60451;-75
2022/10/17 07:34:04;;;;;;;;;9.33;6.67;;;;;19.54;100.00;101538.56;5024231;28;60729;-75
2022/10/17 07:36:29;;;;;;;;;7.33;5.67;;;;;19.57;100.00;101538.53;5045875;28;45493;-75
2022/10/17 07:38:55;;;;;;;;;8.00;5.67;;;;;19.62;100.00;101542.94;5040330;28;64099;-75
2022/10/17 07:41:20;;;;;;;;;6.33;6.33;;;;;19.64;100.00;101545.59;5043734;28;46456;-74
2022/10/17 07:43:45;;;;;;;;;7.33;5.00;;;;;19.66;100.00;101541.13;5043464;28;60224;-75
2022/10/17 07:46:11;;;;;;;;;6.00;5.00;;;;;19.68;100.00;101543.75;5047238;28;60351;-74
2022/10/17 07:48:38;;;;;;;;;8.33;7.00;;;;;19.71;100.00;101562.44;5049086;28;45450;-75
2022/10/17 07:51:07;;;;;;;;;7.67;6.00;;;;;19.71;100.00;101557.09;5048438;28;45459;-74
2022/10/17 07:53:36;;;;;;;;;7.67;6.00;;;;;19.71;100.00;101549.97;5043796;28;45504;-74
2022/10/17 07:56:05;;;;;;;;;5.00;5.00;;;;;19.75;100.00;101569.53;5051031;28;45334;-73
2022/10/17 07:58:31;;;;;;;;;5.00;5.00;;;;;19.75;100.00;101566.84;5045253;28;47323;-73
2022/10/17 08:01:00;;;;;;;;;6.67;6.67;;;;;19.77;100.00;101573.09;5051276;28;45482;-75
2022/10/17 08:03:25;;;;;;;;;6.67;6.67;;;;;19.80;100.00;101591.78;5049022;28;45509;-75
2022/10/17 08:05:50;;;;;;;;;5.67;5.67;;;;;19.81;100.00;101597.13;5047927;28;51827;-74
2022/10/17 08:08:16;;;;;;;;;5.67;5.00;;;;;19.82;100.00;101601.59;5045853;28;66987;-74
2022/10/17 08:10:41;;;;;;;;;5.00;4.33;;;;;19.84;100.00;101594.41;5046902;28;45482;-75
2022/10/17 08:13:07;;;;;;;;;6.33;4.00;;;;;19.87;100.00;101597.06;5045576;28;46328;-75
2022/10/17 08:15:32;;;;;;;;;5.67;5.67;;;;;19.88;100.00;101614.91;5049095;28;45606;-77
2022/10/17 08:17:58;;;;;;;;;6.33;5.00;;;;;19.90;100.00;101606.84;5048255;28;46732;-77
2022/10/17 08:20:23;;;;;;;;;5.00;5.00;;;;;19.95;100.00;101617.50;5052407;28;45444;-74
2022/10/17 08:22:52;;;;;;;;;8.33;6.33;;;;;19.97;100.00;101619.22;5051157;28;45623;-74
2022/10/17 08:25:18;;;;;;;;;7.00;4.33;;;;;20.03;100.00;101619.16;5047947;28;46603;-74
2022/10/17 08:27:43;;;;;;;;;6.33;4.67;;;;;20.06;100.00;101618.22;5042882;28;46468;-75
2022/10/17 08:30:09;;;;;;;;;6.00;4.67;;;;;20.11;100.00;101635.09;5038760;28;65503;-77
2022/10/17 08:32:34;;;;;;;;;6.67;5.00;;;;;20.18;100.00;101633.22;5042831;28;45529;-74
2022/10/17 08:35:00;;;;;;;;;6.67;5.00;;;;;20.21;100.00;101631.38;5044386;28;45479;-74
2022/10/17 08:37:25;;;;;;;;;6.00;4.00;;;;;20.25;100.00;101635.78;5046077;28;46378;-76
2022/10/17 08:39:50;;;;;;;;;6.33;5.00;;;;;20.28;100.00;101646.44;5048586;28;62173;-74
2022/10/17 08:42:37;;;;;;;;;5.67;3.67;;;;;20.33;100.00;101644.56;5052447;28;57901;-74
2022/10/17 08:45:47;;;;;;;;;5.00;4.67;;;;;20.38;100.00;101642.72;5047265;28;45455;-75
2022/10/17 08:48:15;;;;;;;;;4.33;4.33;;;;;20.46;100.00;101647.06;5026541;28;46651;-75
2022/10/17 08:50:48;;;;;;;;;7.00;4.00;;;;;20.50;100.00;101646.13;5053406;28;45320;-74
2022/10/17 08:53:13;;;;;;;;;8.67;4.33;;;;;20.54;100.00;101654.09;5038097;28;45448;-75
2022/10/17 08:55:41;;;;;;;;;5.00;5.00;;;;;20.55;100.00;101654.97;5049243;28;45399;-75
2022/10/17 08:58:16;;;;;;;;;3.67;3.67;;;;;20.57;100.00;101661.22;5047791;28;46509;-76
2022/10/17 09:01:01;;;;;;;;;5.33;3.00;;;;;20.59;100.00;101664.75;5036490;28;45471;-77
2022/10/17 09:03:59;;;;;;;;;5.00;3.33;;;;;20.57;100.00;101671.97;5056729;28;47001;-75
2022/10/17 09:06:30;;;;;;;;;7.00;5.00;;;;;20.57;100.00;101680.88;5045583;28;45661;-75
2022/10/17 09:09:34;;;;;;;;;5.67;5.00;;;;;20.56;100.00;101683.56;5033358;28;47367;-76
2022/10/17 09:12:30;;;;;;;;;4.00;4.00;;;;;20.54;100.00;101693.47;5054332;28;45484;-75
2022/10/17 09:15:21;;;;;;;;;5.33;4.33;;;;;20.51;100.00;101715.00;5036908;28;45639;-76
2022/10/17 09:17:53;;;;;;;;;4.00;4.00;;;;;20.47;100.00;101721.31;5039065;28;45399;-75
2022/10/17 09:20:22;;;;;;;;;3.67;3.67;;;;;20.47;100.00;101721.31;5053561;28;45477;-74
2022/10/17 09:22:51;;;;;;;;;6.00;6.00;;;;;20.47;100.00;101715.94;5038087;28;45559;-74
2022/10/17 09:25:18;;;;;;;;;4.67;3.67;;;;;20.46;100.00;101725.78;5056193;28;47077;-75
2022/10/17 09:28:16;;;;;;;;;8.33;5.00;;;;;20.47;100.00;101737.41;5038113;28;45572;-75
2022/10/17 09:30:42;;;;;;;;;6.00;4.67;;;;;20.42;100.00;101741.00;5051012;28;47721;-75
2022/10/17 09:33:24;;;;;;;;;4.33;4.33;;;;;20.40;100.00;101742.84;5056149;28;45530;-74
2022/10/17 09:35:50;;;;;;;;;3.00;3.00;;;;;20.37;100.00;101740.19;5038188;28;45467;-75
2022/10/17 09:38:18;;;;;;;;;5.67;4.00;;;;;20.36;100.00;101748.28;5054833;28;45399;-74
2022/10/17 09:40:44;;;;;;;;;6.67;4.00;;;;;20.37;100.00;101756.28;5034771;28;46559;-75
2022/10/17 09:43:13;;;;;;;;;4.67;3.00;;;;;20.36;100.00;101753.63;5038423;28;45511;-76
2022/10/17 09:45:53;;;;;;;;;5.33;5.33;;;;;20.32;100.00;101757.25;5053364;28;45354;-75
2022/10/17 09:48:35;;;;;;;;;7.00;3.00;;;;;20.33;100.00;101757.22;5035364;28;45701;-75
2022/10/17 09:51:01;;;;;;;;;8.33;6.00;;;;;20.32;100.00;101765.31;5036568;28;45554;-75
2022/10/17 09:53:32;;;;;;;;;4.67;4.67;;;;;20.34;100.00;101768.84;5022216;28;45235;-79
2022/10/17 09:56:01;;;;;;;;;6.33;6.00;;;;;20.34;100.00;101766.16;5038595;28;45591;-75
2022/10/17 09:58:53;;;;;;;;;7.33;5.00;;;;;20.33;100.00;101757.22;5049736;28;45601;-75
2022/10/17 10:01:28;;;;;;;;;6.00;6.00;;;;;20.35;100.00;101770.66;5046057;28;47484;-77
2022/10/17 10:04:10;;;;;;;;;5.00;5.00;;;;;20.33;100.00;101769.75;5021605;28;45556;-76
2022/10/17 10:06:36;;;;;;;;;5.67;5.00;;;;;20.30;100.00;101757.28;5053496;28;45356;-77
2022/10/17 10:09:04;;;;;;;;;8.00;5.67;;;;;20.29;100.00;101757.28;5037528;28;45550;-74
2022/10/17 10:11:50;;;;;;;;;6.33;5.00;;;;;20.28;100.00;101758.22;5052369;28;46663;-73
2022/10/17 10:14:21;;;;;;;;;4.67;4.67;;;;;20.28;100.00;101758.22;5036035;28;45416;-74
2022/10/17 10:16:48;;;;;;;;;9.00;6.67;;;;;20.25;100.00;101767.19;5049989;28;45426;-74
2022/10/17 10:19:36;;;;;;;;;6.00;6.00;;;;;20.27;100.00;101780.59;5053534;28;45405;-74
2022/10/17 10:22:04;;;;;;;;;7.67;6.00;;;;;20.25;100.00;101780.63;5056617;28;47598;-74
2022/10/17 10:24:31;;;;;;;;;4.33;4.33;;;;;20.18;100.00;101778.91;5033148;28;45428;-76
2022/10/17 10:27:01;;;;;;;;;9.67;7.33;;;;;20.17;100.00;101785.19;5055308;28;45411;-76
2022/10/17 10:29:36;;;;;;;;;5.67;5.00;;;;;20.16;100.00;101788.78;5053784;28;45422;-76
2022/10/17 10:32:22;;;;;;;;;11.00;7.00;;;;;20.18;100.00;101799.47;5036487;28;46538;-75
2022/10/17 10:34:48;;;;;;;;;6.67;6.00;;;;;20.19;100.00;101799.47;5048554;28;45478;-75
2022/10/17 10:37:43;;;;;;;;;6.33;5.00;;;;;20.20;100.00;101817.34;5045825;28;45458;-74
2022/10/17 10:40:17;;;;;;;;;9.00;6.67;;;;;20.22;100.00;101825.34;5043234;28;45733;-76
2022/10/17 10:42:46;;;;;;;;;8.67;8.33;;;;;20.23;100.00;101838.72;5030809;28;46874;-79
2022/10/17 10:45:18;;;;;;;;;9.67;7.67;;;;;20.25;100.00;101836.94;5046402;28;45530;-76
2022/10/17 10:47:55;;;;;;;;;6.67;5.67;;;;;20.26;100.00;101840.50;5054165;28;45970;-75
2022/10/17 10:50:41;;;;;;;;;8.00;7.00;;;;;20.28;100.00;101836.88;5046268;28;45526;-75
2022/10/17 10:53:22;;;;;;;;;10.00;7.67;;;;;20.31;100.00;101834.16;5029156;28;47706;-77
2022/10/17 10:55:53;;;;;;;;;8.00;8.00;;;;;20.34;100.00;101835.91;5048009;28;45359;-75
2022/10/17 10:58:31;;;;;;;;;11.33;8.00;;;;;20.39;100.00;101848.34;5046204;28;45251;-75
2022/10/17 11:01:02;;;;;;;;;10.67;10.67;;;;;20.43;100.00;101851.88;5053085;28;45595;-75
2022/10/17 11:03:37;;;;;;;;;6.33;6.33;;;;;20.47;100.00;101856.34;5054395;28;46006;-74
2022/10/17 11:06:10;;;;;;;;;9.00;8.00;;;;;20.49;100.00;101851.84;5052779;28;45476;-76
2022/10/17 11:08:48;;;;;;;;;9.67;8.33;;;;;20.54;100.00;101849.09;5043846;28;45472;-75
2022/10/17 11:11:24;;;;;;;;;11.67;7.00;;;;;20.57;100.00;101843.69;5050201;28;45601;-75
2022/10/17 11:13:57;;;;;;;;;9.00;7.67;;;;;20.61;100.00;101840.03;5033925;28;46366;-74
2022/10/17 11:16:36;;;;;;;;;7.00;5.67;;;;;20.67;100.00;101840.84;5054035;28;45229;-73
2022/10/17 11:19:19;;;;;;;;;6.00;6.00;;;;;20.72;100.00;101829.13;5047010;28;45474;-73
2022/10/17 11:21:57;;;;;;;;;6.00;6.00;;;;;20.78;100.00;101839.81;5027267;28;45495;-72
2022/10/17 11:24:45;;;;;;;;;8.00;6.67;;;;;20.85;100.00;101841.47;5038090;28;47265;-77
2022/10/17 11:27:11;;;;;;;;;8.33;7.00;;;;;20.89;100.00;101856.63;5042984;28;47306;-73
2022/10/17 11:29:38;;;;;;;;;8.33;8.33;;;;;20.90;100.00;101861.09;5047954;28;45268;-76